sensor_id;sensor_type;location;lat;lon;timestamp;P1;durP1;ratioP1;P2;durP2;ratioP2
57055;SDS011;42945;51.718;5.324;2023-12-22T00:01:08;0.28;;;0.20;;
57055;SDS011;42945;51.718;5.324;2023-12-22T00:06:57;0.00;;;0.00;;
57055;SDS011;42945;51.718;5.324;2023-12-22T00:18:57;0.00;;;0.00;;
57055;SDS011;42945;51.718;5.324;2023-12-22T00:28:40;0.43;;;0.00;;
57055;SDS011;42945;51.718;5.324;2023-12-22T00:34:29;0.05;;;0.05;;
57055;SDS011;42945;51.718;5.324;2023-12-22T00:40:17;0.57;;;0.13;;
57055;SDS011;42945;51.718;5.324;2023-12-22T00:46:05;0.50;;;0.32;;
57055;SDS011;42945;51.718;5.324;2023-12-22T00:51:53;0.00;;;0.00;;
57055;SDS011;42945;51.718;5.324;2023-12-22T00:57:41;0.52;;;0.00;;
57055;SDS011;42945;51.718;5.324;2023-12-22T01:03:29;0.00;;;0.00;;
57055;SDS011;42945;51.718;5.324;2023-12-22T01:09:17;0.65;;;0.52;;
57055;SDS011;42945;51.718;5.324;2023-12-22T01:15:07;0.05;;;0.03;;
57055;SDS011;42945;51.718;5.324;2023-12-22T01:20:55;3.92;;;0.30;;
57055;SDS011;42945;51.718;5.324;2023-12-22T01:26:43;0.08;;;0.00;;
57055;SDS011;42945;51.718;5.324;2023-12-22T01:32:30;0.55;;;0.00;;
57055;SDS011;42945;51.718;5.324;2023-12-22T01:38:22;0.70;;;0.63;;
57055;SDS011;42945;51.718;5.324;2023-12-22T01:44:10;1.27;;;0.30;;
57055;SDS011;42945;51.718;5.324;2023-12-22T01:49:58;0.00;;;0.00;;
57055;SDS011;42945;51.718;5.324;2023-12-22T01:55:48;0.65;;;0.35;;
57055;SDS011;42945;51.718;5.324;2023-12-22T02:01:38;0.22;;;0.22;;
57055;SDS011;42945;51.718;5.324;2023-12-22T02:07:27;0.03;;;0.03;;
57055;SDS011;42945;51.718;5.324;2023-12-22T02:13:14;0.00;;;0.00;;
57055;SDS011;42945;51.718;5.324;2023-12-22T02:19:07;0.05;;;0.05;;
57055;SDS011;42945;51.718;5.324;2023-12-22T02:25:09;1.38;;;0.70;;
57055;SDS011;42945;51.718;5.324;2023-12-22T02:31:08;0.00;;;0.00;;
57055;SDS011;42945;51.718;5.324;2023-12-22T02:37:07;0.00;;;0.00;;
57055;SDS011;42945;51.718;5.324;2023-12-22T02:42:56;0.52;;;0.52;;
57055;SDS011;42945;51.718;5.324;2023-12-22T02:48:44;0.00;;;0.00;;
57055;SDS011;42945;51.718;5.324;2023-12-22T02:54:32;0.98;;;0.40;;
57055;SDS011;42945;51.718;5.324;2023-12-22T03:00:21;3.05;;;0.20;;
57055;SDS011;42945;51.718;5.324;2023-12-22T03:06:09;24.80;;;3.63;;
57055;SDS011;42945;51.718;5.324;2023-12-22T03:11:57;30.38;;;3.45;;
57055;SDS011;42945;51.718;5.324;2023-12-22T03:17:49;23.55;;;2.30;;
57055;SDS011;42945;51.718;5.324;2023-12-22T03:23:36;15.82;;;2.47;;
57055;SDS011;42945;51.718;5.324;2023-12-22T03:33:13;16.33;;;2.05;;
57055;SDS011;42945;51.718;5.324;2023-12-22T03:39:00;24.42;;;2.88;;
57055;SDS011;42945;51.718;5.324;2023-12-22T03:44:49;23.58;;;2.20;;
57055;SDS011;42945;51.718;5.324;2023-12-22T03:50:37;18.80;;;2.78;;
57055;SDS011;42945;51.718;5.324;2023-12-22T03:56:24;20.15;;;1.98;;
57055;SDS011;42945;51.718;5.324;2023-12-22T04:02:11;19.23;;;2.60;;
57055;SDS011;42945;51.718;5.324;2023-12-22T04:07:59;15.38;;;2.17;;
57055;SDS011;42945;51.718;5.324;2023-12-22T04:13:47;12.30;;;1.67;;
57055;SDS011;42945;51.718;5.324;2023-12-22T04:19:35;17.75;;;2.42;;
57055;SDS011;42945;51.718;5.324;2023-12-22T04:25:24;19.65;;;2.53;;
57055;SDS011;42945;51.718;5.324;2023-12-22T04:31:12;14.27;;;1.83;;
57055;SDS011;42945;51.718;5.324;2023-12-22T04:37:01;12.10;;;1.95;;
57055;SDS011;42945;51.718;5.324;2023-12-22T04:42:50;18.42;;;2.33;;
57055;SDS011;42945;51.718;5.324;2023-12-22T04:48:37;13.25;;;2.50;;
57055;SDS011;42945;51.718;5.324;2023-12-22T04:54:25;16.13;;;2.63;;
57055;SDS011;42945;51.718;5.324;2023-12-22T05:00:13;21.23;;;2.70;;
57055;SDS011;42945;51.718;5.324;2023-12-22T05:06:01;12.40;;;1.58;;
57055;SDS011;42945;51.718;5.324;2023-12-22T05:11:48;19.10;;;2.30;;
57055;SDS011;42945;51.718;5.324;2023-12-22T05:17:36;18.58;;;2.10;;
57055;SDS011;42945;51.718;5.324;2023-12-22T05:23:25;15.70;;;1.80;;
57055;SDS011;42945;51.718;5.324;2023-12-22T05:29:14;12.65;;;1.83;;
57055;SDS011;42945;51.718;5.324;2023-12-22T05:35:02;19.45;;;2.53;;
57055;SDS011;42945;51.718;5.324;2023-12-22T05:40:51;16.92;;;1.90;;
57055;SDS011;42945;51.718;5.324;2023-12-22T05:46:39;16.65;;;2.53;;
57055;SDS011;42945;51.718;5.324;2023-12-22T05:52:26;19.65;;;3.05;;
57055;SDS011;42945;51.718;5.324;2023-12-22T05:58:14;22.27;;;2.67;;
57055;SDS011;42945;51.718;5.324;2023-12-22T06:04:02;23.30;;;3.22;;
57055;SDS011;42945;51.718;5.324;2023-12-22T06:09:50;29.30;;;3.97;;
57055;SDS011;42945;51.718;5.324;2023-12-22T06:15:37;27.48;;;3.83;;
57055;SDS011;42945;51.718;5.324;2023-12-22T06:21:25;23.08;;;3.55;;
57055;SDS011;42945;51.718;5.324;2023-12-22T06:27:13;27.10;;;3.85;;
57055;SDS011;42945;51.718;5.324;2023-12-22T06:36:49;39.13;;;5.35;;
57055;SDS011;42945;51.718;5.324;2023-12-22T06:42:37;37.15;;;4.95;;
57055;SDS011;42945;51.718;5.324;2023-12-22T06:48:25;32.95;;;4.78;;
57055;SDS011;42945;51.718;5.324;2023-12-22T06:54:14;38.90;;;6.30;;
57055;SDS011;42945;51.718;5.324;2023-12-22T07:00:01;32.92;;;5.63;;
57055;SDS011;42945;51.718;5.324;2023-12-22T07:05:49;48.33;;;6.47;;
57055;SDS011;42945;51.718;5.324;2023-12-22T07:11:38;48.95;;;6.95;;
57055;SDS011;42945;51.718;5.324;2023-12-22T07:17:32;45.38;;;5.97;;
57055;SDS011;42945;51.718;5.324;2023-12-22T07:23:20;44.97;;;6.10;;
57055;SDS011;42945;51.718;5.324;2023-12-22T07:29:10;41.13;;;5.82;;
57055;SDS011;42945;51.718;5.324;2023-12-22T07:38:51;39.30;;;4.85;;
57055;SDS011;42945;51.718;5.324;2023-12-22T07:44:39;33.05;;;5.38;;
57055;SDS011;42945;51.718;5.324;2023-12-22T07:50:27;27.77;;;4.05;;
57055;SDS011;42945;51.718;5.324;2023-12-22T07:56:14;22.15;;;4.05;;
57055;SDS011;42945;51.718;5.324;2023-12-22T08:02:02;31.42;;;3.97;;
57055;SDS011;42945;51.718;5.324;2023-12-22T08:07:50;31.65;;;3.30;;
57055;SDS011;42945;51.718;5.324;2023-12-22T08:13:38;22.05;;;3.38;;
57055;SDS011;42945;51.718;5.324;2023-12-22T08:19:27;17.33;;;3.08;;
57055;SDS011;42945;51.718;5.324;2023-12-22T08:25:15;23.05;;;3.08;;
57055;SDS011;42945;51.718;5.324;2023-12-22T08:31:04;28.60;;;3.05;;
57055;SDS011;42945;51.718;5.324;2023-12-22T08:36:52;16.17;;;2.60;;
57055;SDS011;42945;51.718;5.324;2023-12-22T08:42:40;13.52;;;2.47;;
57055;SDS011;42945;51.718;5.324;2023-12-22T08:48:28;20.40;;;2.97;;
57055;SDS011;42945;51.718;5.324;2023-12-22T08:54:16;11.90;;;1.77;;
57055;SDS011;42945;51.718;5.324;2023-12-22T09:00:04;15.35;;;2.55;;
57055;SDS011;42945;51.718;5.324;2023-12-22T09:05:56;14.07;;;2.30;;
57055;SDS011;42945;51.718;5.324;2023-12-22T09:11:44;15.20;;;1.63;;
57055;SDS011;42945;51.718;5.324;2023-12-22T09:17:34;14.80;;;1.58;;
57055;SDS011;42945;51.718;5.324;2023-12-22T09:23:22;11.60;;;1.70;;
57055;SDS011;42945;51.718;5.324;2023-12-22T09:29:10;5.13;;;0.80;;
57055;SDS011;42945;51.718;5.324;2023-12-22T09:34:58;14.57;;;1.52;;
57055;SDS011;42945;51.718;5.324;2023-12-22T09:40:47;9.70;;;1.55;;
57055;SDS011;42945;51.718;5.324;2023-12-22T09:46:35;9.10;;;1.55;;
57055;SDS011;42945;51.718;5.324;2023-12-22T09:52:23;11.48;;;1.20;;
57055;SDS011;42945;51.718;5.324;2023-12-22T09:58:13;9.82;;;1.98;;
57055;SDS011;42945;51.718;5.324;2023-12-22T10:04:10;8.48;;;0.88;;
57055;SDS011;42945;51.718;5.324;2023-12-22T10:09:59;10.07;;;1.13;;
57055;SDS011;42945;51.718;5.324;2023-12-22T10:15:48;7.88;;;1.38;;
57055;SDS011;42945;51.718;5.324;2023-12-22T10:21:38;9.88;;;1.00;;
57055;SDS011;42945;51.718;5.324;2023-12-22T10:27:25;5.07;;;0.80;;
57055;SDS011;42945;51.718;5.324;2023-12-22T10:33:13;14.02;;;1.60;;
57055;SDS011;42945;51.718;5.324;2023-12-22T10:42:54;8.95;;;1.25;;
57055;SDS011;42945;51.718;5.324;2023-12-22T10:48:42;5.30;;;0.98;;
57055;SDS011;42945;51.718;5.324;2023-12-22T10:54:31;5.55;;;0.75;;
57055;SDS011;42945;51.718;5.324;2023-12-22T11:00:19;9.77;;;1.58;;
57055;SDS011;42945;51.718;5.324;2023-12-22T11:06:09;5.35;;;1.02;;
57055;SDS011;42945;51.718;5.324;2023-12-22T11:12:02;8.75;;;1.45;;
57055;SDS011;42945;51.718;5.324;2023-12-22T11:17:52;9.13;;;1.00;;
57055;SDS011;42945;51.718;5.324;2023-12-22T11:23:42;4.07;;;0.85;;
57055;SDS011;42945;51.718;5.324;2023-12-22T11:29:33;10.10;;;1.65;;
57055;SDS011;42945;51.718;5.324;2023-12-22T11:35:25;6.63;;;1.20;;
57055;SDS011;42945;51.718;5.324;2023-12-22T11:45:09;9.00;;;1.50;;
57055;SDS011;42945;51.718;5.324;2023-12-22T11:51:00;8.50;;;1.00;;
57055;SDS011;42945;51.718;5.324;2023-12-22T11:56:48;7.50;;;1.25;;
57055;SDS011;42945;51.718;5.324;2023-12-22T12:02:39;7.82;;;1.55;;
57055;SDS011;42945;51.718;5.324;2023-12-22T12:08:29;12.95;;;1.75;;
57055;SDS011;42945;51.718;5.324;2023-12-22T12:14:37;8.07;;;1.10;;
57055;SDS011;42945;51.718;5.324;2023-12-22T12:20:29;12.65;;;1.52;;
57055;SDS011;42945;51.718;5.324;2023-12-22T12:26:18;6.97;;;1.30;;
57055;SDS011;42945;51.718;5.324;2023-12-22T12:32:07;5.50;;;0.98;;
57055;SDS011;42945;51.718;5.324;2023-12-22T12:38:01;6.38;;;0.73;;
57055;SDS011;42945;51.718;5.324;2023-12-22T12:48:01;3.95;;;1.30;;
57055;SDS011;42945;51.718;5.324;2023-12-22T12:53:50;4.80;;;1.75;;
57055;SDS011;42945;51.718;5.324;2023-12-22T12:59:39;6.97;;;1.23;;
57055;SDS011;42945;51.718;5.324;2023-12-22T13:05:36;5.35;;;1.05;;
57055;SDS011;42945;51.718;5.324;2023-12-22T13:11:24;8.02;;;0.98;;
57055;SDS011;42945;51.718;5.324;2023-12-22T13:17:14;6.40;;;1.40;;
57055;SDS011;42945;51.718;5.324;2023-12-22T13:23:03;12.20;;;1.60;;
57055;SDS011;42945;51.718;5.324;2023-12-22T13:28:56;6.70;;;1.45;;
57055;SDS011;42945;51.718;5.324;2023-12-22T13:34:50;7.90;;;1.88;;
57055;SDS011;42945;51.718;5.324;2023-12-22T13:40:44;5.90;;;1.00;;
57055;SDS011;42945;51.718;5.324;2023-12-22T13:50:34;13.07;;;1.27;;
57055;SDS011;42945;51.718;5.324;2023-12-22T13:56:23;9.38;;;1.30;;
57055;SDS011;42945;51.718;5.324;2023-12-22T14:02:11;9.82;;;2.10;;
57055;SDS011;42945;51.718;5.324;2023-12-22T14:08:00;12.05;;;2.03;;
57055;SDS011;42945;51.718;5.324;2023-12-22T14:13:49;9.98;;;1.65;;
57055;SDS011;42945;51.718;5.324;2023-12-22T14:19:38;8.43;;;1.45;;
57055;SDS011;42945;51.718;5.324;2023-12-22T14:25:25;11.25;;;1.00;;
57055;SDS011;42945;51.718;5.324;2023-12-22T14:31:14;7.30;;;1.33;;
57055;SDS011;42945;51.718;5.324;2023-12-22T14:37:04;8.07;;;1.17;;
57055;SDS011;42945;51.718;5.324;2023-12-22T14:42:52;8.18;;;0.95;;
57055;SDS011;42945;51.718;5.324;2023-12-22T14:52:34;9.10;;;1.48;;
57055;SDS011;42945;51.718;5.324;2023-12-22T14:58:23;7.97;;;1.37;;
57055;SDS011;42945;51.718;5.324;2023-12-22T15:04:10;12.30;;;1.90;;
57055;SDS011;42945;51.718;5.324;2023-12-22T15:09:59;12.93;;;1.80;;
57055;SDS011;42945;51.718;5.324;2023-12-22T15:15:46;10.50;;;1.42;;
57055;SDS011;42945;51.718;5.324;2023-12-22T15:21:35;6.05;;;0.90;;
57055;SDS011;42945;51.718;5.324;2023-12-22T15:27:24;8.55;;;1.75;;
57055;SDS011;42945;51.718;5.324;2023-12-22T15:33:12;8.18;;;1.42;;
57055;SDS011;42945;51.718;5.324;2023-12-22T15:38:59;8.98;;;1.20;;
57055;SDS011;42945;51.718;5.324;2023-12-22T15:44:47;7.18;;;0.95;;
57055;SDS011;42945;51.718;5.324;2023-12-22T15:50:36;6.03;;;1.02;;
57055;SDS011;42945;51.718;5.324;2023-12-22T15:56:25;7.95;;;1.20;;
57055;SDS011;42945;51.718;5.324;2023-12-22T16:02:15;7.65;;;1.80;;
57055;SDS011;42945;51.718;5.324;2023-12-22T16:08:04;12.95;;;1.75;;
57055;SDS011;42945;51.718;5.324;2023-12-22T16:13:54;9.40;;;0.90;;
57055;SDS011;42945;51.718;5.324;2023-12-22T16:19:44;7.78;;;1.30;;
57055;SDS011;42945;51.718;5.324;2023-12-22T16:25:32;11.48;;;1.60;;
57055;SDS011;42945;51.718;5.324;2023-12-22T16:31:19;8.60;;;1.40;;
57055;SDS011;42945;51.718;5.324;2023-12-22T16:37:08;8.57;;;1.52;;
57055;SDS011;42945;51.718;5.324;2023-12-22T16:42:56;9.35;;;1.30;;
57055;SDS011;42945;51.718;5.324;2023-12-22T16:48:44;11.82;;;1.33;;
57055;SDS011;42945;51.718;5.324;2023-12-22T16:54:33;7.25;;;1.30;;
57055;SDS011;42945;51.718;5.324;2023-12-22T17:00:21;5.68;;;0.85;;
57055;SDS011;42945;51.718;5.324;2023-12-22T17:06:10;9.98;;;1.35;;
57055;SDS011;42945;51.718;5.324;2023-12-22T17:11:58;7.63;;;1.20;;
57055;SDS011;42945;51.718;5.324;2023-12-22T17:17:46;8.38;;;1.38;;
57055;SDS011;42945;51.718;5.324;2023-12-22T17:23:34;14.52;;;1.70;;
57055;SDS011;42945;51.718;5.324;2023-12-22T17:29:21;14.73;;;1.65;;
57055;SDS011;42945;51.718;5.324;2023-12-22T17:35:09;6.75;;;0.90;;
57055;SDS011;42945;51.718;5.324;2023-12-22T17:40:56;15.07;;;2.03;;
57055;SDS011;42945;51.718;5.324;2023-12-22T17:46:45;12.20;;;1.90;;
57055;SDS011;42945;51.718;5.324;2023-12-22T17:52:38;6.55;;;1.13;;
57055;SDS011;42945;51.718;5.324;2023-12-22T17:58:26;12.50;;;1.17;;
57055;SDS011;42945;51.718;5.324;2023-12-22T18:04:14;10.43;;;1.52;;
57055;SDS011;42945;51.718;5.324;2023-12-22T18:10:02;6.90;;;1.15;;
57055;SDS011;42945;51.718;5.324;2023-12-22T18:15:51;8.93;;;1.80;;
57055;SDS011;42945;51.718;5.324;2023-12-22T18:21:40;12.07;;;1.75;;
57055;SDS011;42945;51.718;5.324;2023-12-22T18:27:27;8.65;;;1.33;;
57055;SDS011;42945;51.718;5.324;2023-12-22T18:33:16;8.98;;;1.10;;
57055;SDS011;42945;51.718;5.324;2023-12-22T18:39:05;11.77;;;1.25;;
57055;SDS011;42945;51.718;5.324;2023-12-22T18:44:54;20.25;;;2.28;;
57055;SDS011;42945;51.718;5.324;2023-12-22T18:50:43;12.77;;;1.50;;
57055;SDS011;42945;51.718;5.324;2023-12-22T18:56:56;10.05;;;1.23;;
57055;SDS011;42945;51.718;5.324;2023-12-22T19:02:45;6.78;;;1.20;;
57055;SDS011;42945;51.718;5.324;2023-12-22T19:08:32;7.07;;;1.38;;
57055;SDS011;42945;51.718;5.324;2023-12-22T19:14:21;7.18;;;0.90;;
57055;SDS011;42945;51.718;5.324;2023-12-22T19:20:09;5.72;;;1.05;;
57055;SDS011;42945;51.718;5.324;2023-12-22T19:25:57;10.73;;;1.40;;
57055;SDS011;42945;51.718;5.324;2023-12-22T19:31:46;10.50;;;1.30;;
57055;SDS011;42945;51.718;5.324;2023-12-22T19:37:34;8.57;;;1.42;;
57055;SDS011;42945;51.718;5.324;2023-12-22T19:43:23;10.25;;;1.33;;
57055;SDS011;42945;51.718;5.324;2023-12-22T19:49:11;9.20;;;1.20;;
57055;SDS011;42945;51.718;5.324;2023-12-22T19:58:45;10.85;;;1.98;;
57055;SDS011;42945;51.718;5.324;2023-12-22T20:04:32;14.77;;;2.03;;
57055;SDS011;42945;51.718;5.324;2023-12-22T20:10:23;11.23;;;1.63;;
57055;SDS011;42945;51.718;5.324;2023-12-22T20:16:12;13.40;;;1.33;;
57055;SDS011;42945;51.718;5.324;2023-12-22T20:22:00;8.18;;;1.45;;
57055;SDS011;42945;51.718;5.324;2023-12-22T20:27:49;11.80;;;1.33;;
57055;SDS011;42945;51.718;5.324;2023-12-22T20:33:38;5.85;;;1.17;;
57055;SDS011;42945;51.718;5.324;2023-12-22T20:39:26;4.78;;;0.63;;
57055;SDS011;42945;51.718;5.324;2023-12-22T20:45:20;4.95;;;0.40;;
57055;SDS011;42945;51.718;5.324;2023-12-22T20:51:07;5.88;;;0.60;;
57055;SDS011;42945;51.718;5.324;2023-12-22T21:00:51;4.95;;;0.52;;
57055;SDS011;42945;51.718;5.324;2023-12-22T21:06:40;7.93;;;0.80;;
57055;SDS011;42945;51.718;5.324;2023-12-22T21:12:29;5.28;;;0.88;;
57055;SDS011;42945;51.718;5.324;2023-12-22T21:18:16;9.63;;;0.90;;
57055;SDS011;42945;51.718;5.324;2023-12-22T21:24:05;7.05;;;0.90;;
57055;SDS011;42945;51.718;5.324;2023-12-22T21:29:53;10.15;;;0.95;;
57055;SDS011;42945;51.718;5.324;2023-12-22T21:35:40;10.60;;;0.93;;
57055;SDS011;42945;51.718;5.324;2023-12-22T21:41:28;7.97;;;1.10;;
57055;SDS011;42945;51.718;5.324;2023-12-22T21:47:17;5.72;;;0.70;;
57055;SDS011;42945;51.718;5.324;2023-12-22T21:53:04;6.00;;;0.70;;
57055;SDS011;42945;51.718;5.324;2023-12-22T22:02:26;7.60;;;1.00;;
57055;SDS011;42945;51.718;5.324;2023-12-22T22:08:13;7.85;;;1.00;;
57055;SDS011;42945;51.718;5.324;2023-12-22T22:14:02;10.23;;;1.08;;
57055;SDS011;42945;51.718;5.324;2023-12-22T22:19:50;12.73;;;1.20;;
57055;SDS011;42945;51.718;5.324;2023-12-22T22:31:58;8.85;;;1.35;;
57055;SDS011;42945;51.718;5.324;2023-12-22T22:37:46;12.65;;;1.40;;
57055;SDS011;42945;51.718;5.324;2023-12-22T22:43:33;8.65;;;1.08;;
57055;SDS011;42945;51.718;5.324;2023-12-22T22:49:20;10.85;;;1.17;;
57055;SDS011;42945;51.718;5.324;2023-12-22T22:55:08;10.32;;;1.50;;
57055;SDS011;42945;51.718;5.324;2023-12-22T23:04:45;11.15;;;1.00;;
57055;SDS011;42945;51.718;5.324;2023-12-22T23:10:33;11.48;;;1.27;;
57055;SDS011;42945;51.718;5.324;2023-12-22T23:16:22;12.95;;;1.33;;
57055;SDS011;42945;51.718;5.324;2023-12-22T23:22:10;10.48;;;1.20;;
57055;SDS011;42945;51.718;5.324;2023-12-22T23:27:57;8.73;;;1.25;;
57055;SDS011;42945;51.718;5.324;2023-12-22T23:33:46;6.97;;;0.95;;
57055;SDS011;42945;51.718;5.324;2023-12-22T23:39:33;12.20;;;0.75;;
57055;SDS011;42945;51.718;5.324;2023-12-22T23:45:21;4.88;;;0.82;;
57055;SDS011;42945;51.718;5.324;2023-12-22T23:51:10;10.60;;;1.30;;
57055;SDS011;42945;51.718;5.324;2023-12-22T23:57:00;10.77;;;1.08;;
